RYR33CX EGKK-EBBR
Flight info
| Callsign | RYR33CX |
|---|---|
| Flight time | 0h 40m |
| Altitude | 23000 |
| Route | MIMFO Y312 DVR L18 VABIK Q70 KOK |
| Aircraft | B738/M-SDE2E3FGHIRWXY/LB1 |
Departure
| Time | 2026-04-16 13:46 |
|---|---|
| Airport | London Gatwick Airport (EGKK) |
Arrival
| Time | 2026-04-16 14:27 |
|---|---|
| Airport | Brussels Airport (EBBR) |
| Time | Latitude | Longitude | Altitude | Speed | Heading |
|---|---|---|---|---|---|
| 2026-04-16 13:24 | 51.15444 | -0.16433 | 205 ft | 0 kts | 77° |
| 2026-04-16 13:38 | 51.15441 | -0.16452 | 210 ft | 3 kts | 75° |
| 2026-04-16 13:38 | 51.15435 | -0.16481 | 208 ft | 3 kts | 59° |
| 2026-04-16 13:38 | 51.15424 | -0.16502 | 206 ft | 3 kts | 18° |
| 2026-04-16 13:39 | 51.15414 | -0.16504 | 211 ft | 0 kts | 347° |
| 2026-04-16 13:41 | 51.15414 | -0.16506 | 212 ft | 0 kts | 336° |
| 2026-04-16 13:41 | 51.15414 | -0.16533 | 212 ft | 7 kts | 264° |
| 2026-04-16 13:42 | 51.15400 | -0.16636 | 214 ft | 11 kts | 257° |
| 2026-04-16 13:42 | 51.15383 | -0.16755 | 206 ft | 11 kts | 254° |
| 2026-04-16 13:42 | 51.15329 | -0.16805 | 203 ft | 8 kts | 188° |
| 2026-04-16 13:42 | 51.15285 | -0.16817 | 208 ft | 1 kts | 189° |
| 2026-04-16 13:43 | 51.15281 | -0.16818 | 207 ft | 1 kts | 186° |
| 2026-04-16 13:43 | 51.15279 | -0.16818 | 206 ft | 0 kts | 185° |
| 2026-04-16 13:43 | 51.15278 | -0.16818 | 206 ft | 2 kts | 184° |
| 2026-04-16 13:43 | 51.15241 | -0.16810 | 206 ft | 0 kts | 169° |
| 2026-04-16 13:45 | 51.15221 | -0.16804 | 206 ft | 11 kts | 169° |
| 2026-04-16 13:45 | 51.15128 | -0.16806 | 203 ft | 14 kts | 223° |
| 2026-04-16 13:45 | 51.15112 | -0.16871 | 212 ft | 0 kts | 257° |
| 2026-04-16 13:46 | 51.15091 | -0.17024 | 206 ft | 46 kts | 257° |
| 2026-04-16 13:46 | 51.14967 | -0.17915 | 210 ft | 116 kts | 258° |
| 2026-04-16 13:46 | 51.14762 | -0.19460 | 379 ft | 158 kts | 255° |
| 2026-04-16 13:46 | 51.14535 | -0.21154 | 1326 ft | 152 kts | 255° |
| 2026-04-16 13:47 | 51.14315 | -0.22733 | 2288 ft | 152 kts | 255° |
| 2026-04-16 13:47 | 51.14084 | -0.24439 | 3053 ft | 156 kts | 257° |
| 2026-04-16 13:47 | 51.13855 | -0.26178 | 3700 ft | 174 kts | 256° |
| 2026-04-16 13:47 | 51.13720 | -0.28237 | 3925 ft | 204 kts | 274° |
| 2026-04-16 13:48 | 51.14201 | -0.30442 | 4207 ft | 217 kts | 299° |
| 2026-04-16 13:48 | 51.15295 | -0.32175 | 4466 ft | 231 kts | 326° |
| 2026-04-16 13:48 | 51.16922 | -0.32807 | 4848 ft | 255 kts | 0° |
| 2026-04-16 13:48 | 51.18645 | -0.31988 | 4965 ft | 268 kts | 33° |
| 2026-04-16 13:49 | 51.19760 | -0.29721 | 5216 ft | 259 kts | 73° |
| 2026-04-16 13:49 | 51.20042 | -0.26917 | 5881 ft | 257 kts | 87° |
| 2026-04-16 13:49 | 51.20179 | -0.24101 | 6745 ft | 259 kts | 86° |
| 2026-04-16 13:49 | 51.20364 | -0.21253 | 7622 ft | 259 kts | 84° |
| 2026-04-16 13:50 | 51.20633 | -0.18341 | 8177 ft | 276 kts | 81° |
| 2026-04-16 13:50 | 51.21007 | -0.15204 | 8653 ft | 297 kts | 79° |
| 2026-04-16 13:50 | 51.21430 | -0.11929 | 9422 ft | 305 kts | 78° |
| 2026-04-16 13:50 | 51.21869 | -0.08594 | 10248 ft | 310 kts | 78° |
| 2026-04-16 13:51 | 51.22321 | -0.05162 | 10723 ft | 327 kts | 78° |
| 2026-04-16 13:51 | 51.22803 | -0.01472 | 10910 ft | 353 kts | 78° |
| 2026-04-16 13:51 | 51.23318 | 0.02482 | 11181 ft | 373 kts | 78° |
| 2026-04-16 13:51 | 51.23851 | 0.06584 | 11799 ft | 381 kts | 78° |
| 2026-04-16 13:52 | 51.24383 | 0.10697 | 12558 ft | 385 kts | 78° |
| 2026-04-16 13:52 | 51.24925 | 0.14905 | 13321 ft | 389 kts | 78° |
| 2026-04-16 13:52 | 51.25438 | 0.19167 | 14039 ft | 394 kts | 83° |
| 2026-04-16 13:52 | 51.25362 | 0.23538 | 14384 ft | 396 kts | 99° |
| 2026-04-16 13:53 | 51.24985 | 0.27912 | 15037 ft | 400 kts | 99° |
| 2026-04-16 13:53 | 51.24607 | 0.32340 | 15654 ft | 404 kts | 99° |
| 2026-04-16 13:53 | 51.24244 | 0.36805 | 16286 ft | 409 kts | 98° |
| 2026-04-16 13:53 | 51.23895 | 0.41331 | 16928 ft | 413 kts | 98° |
| 2026-04-16 13:54 | 51.23548 | 0.45904 | 17585 ft | 417 kts | 98° |
| 2026-04-16 13:54 | 51.23197 | 0.50524 | 18194 ft | 421 kts | 98° |
| 2026-04-16 13:54 | 51.22837 | 0.55184 | 18723 ft | 426 kts | 98° |
| 2026-04-16 13:54 | 51.22476 | 0.59825 | 19279 ft | 429 kts | 98° |
| 2026-04-16 13:55 | 51.22104 | 0.64576 | 19839 ft | 433 kts | 98° |
| 2026-04-16 13:55 | 51.21727 | 0.69367 | 20401 ft | 438 kts | 98° |
| 2026-04-16 13:55 | 51.21345 | 0.74201 | 20952 ft | 442 kts | 98° |
| 2026-04-16 13:55 | 51.20958 | 0.79082 | 21488 ft | 445 kts | 98° |
| 2026-04-16 13:56 | 51.20565 | 0.84001 | 22168 ft | 449 kts | 98° |
| 2026-04-16 13:56 | 51.20168 | 0.88962 | 22674 ft | 453 kts | 98° |
| 2026-04-16 13:56 | 51.19765 | 0.93957 | 23154 ft | 456 kts | 98° |
| 2026-04-16 13:56 | 51.19356 | 0.99013 | 23197 ft | 466 kts | 98° |
| 2026-04-16 13:57 | 51.18934 | 1.04176 | 23213 ft | 472 kts | 98° |
| 2026-04-16 13:57 | 51.18509 | 1.09375 | 23210 ft | 473 kts | 98° |
| 2026-04-16 13:57 | 51.18088 | 1.14488 | 23199 ft | 471 kts | 98° |
| 2026-04-16 13:58 | 51.17232 | 1.24812 | 23203 ft | 469 kts | 98° |
| 2026-04-16 13:58 | 51.16801 | 1.29970 | 23208 ft | 469 kts | 98° |
| 2026-04-16 13:58 | 51.16551 | 1.35154 | 23198 ft | 470 kts | 90° |
| 2026-04-16 13:58 | 51.16774 | 1.40341 | 23201 ft | 470 kts | 80° |
| 2026-04-16 13:59 | 51.17421 | 1.45442 | 23218 ft | 470 kts | 77° |
| 2026-04-16 13:59 | 51.18133 | 1.50535 | 23211 ft | 471 kts | 77° |
| 2026-04-16 13:59 | 51.18847 | 1.55631 | 23208 ft | 472 kts | 77° |
| 2026-04-16 13:59 | 51.19545 | 1.60738 | 23219 ft | 472 kts | 77° |
| 2026-04-16 14:00 | 51.20226 | 1.65863 | 23217 ft | 472 kts | 77° |
| 2026-04-16 14:00 | 51.20885 | 1.70917 | 23219 ft | 472 kts | 78° |
| 2026-04-16 14:00 | 51.21545 | 1.76045 | 23222 ft | 472 kts | 78° |
| 2026-04-16 14:00 | 51.22203 | 1.81178 | 23218 ft | 472 kts | 78° |
| 2026-04-16 14:01 | 51.22858 | 1.86305 | 23225 ft | 472 kts | 78° |
| 2026-04-16 14:01 | 51.23514 | 1.91437 | 23224 ft | 471 kts | 78° |
| 2026-04-16 14:01 | 51.24160 | 1.96558 | 23224 ft | 471 kts | 79° |
| 2026-04-16 14:01 | 51.24542 | 2.01749 | 23216 ft | 470 kts | 88° |
| 2026-04-16 14:02 | 51.24420 | 2.06868 | 23228 ft | 454 kts | 95° |
| 2026-04-16 14:02 | 51.24148 | 2.11816 | 23215 ft | 445 kts | 96° |
| 2026-04-16 14:02 | 51.23874 | 2.16654 | 23231 ft | 443 kts | 96° |
| 2026-04-16 14:02 | 51.23615 | 2.21559 | 23239 ft | 444 kts | 95° |
| 2026-04-16 14:03 | 51.23377 | 2.26473 | 23234 ft | 444 kts | 95° |
| 2026-04-16 14:03 | 51.23150 | 2.31318 | 23212 ft | 430 kts | 95° |
| 2026-04-16 14:03 | 51.22867 | 2.35973 | 23197 ft | 414 kts | 102° |
| 2026-04-16 14:03 | 51.22073 | 2.40264 | 23228 ft | 395 kts | 115° |
| 2026-04-16 14:04 | 51.20846 | 2.44077 | 23212 ft | 378 kts | 126° |
| 2026-04-16 14:04 | 51.19281 | 2.47308 | 23236 ft | 360 kts | 135° |
| 2026-04-16 14:04 | 51.17660 | 2.50254 | 23222 ft | 347 kts | 135° |
| 2026-04-16 14:04 | 51.16095 | 2.53091 | 23215 ft | 335 kts | 135° |
| 2026-04-16 14:05 | 51.14593 | 2.55831 | 23215 ft | 322 kts | 135° |
| 2026-04-16 14:05 | 51.13153 | 2.58475 | 23216 ft | 311 kts | 135° |
| 2026-04-16 14:05 | 51.11774 | 2.61015 | 23234 ft | 308 kts | 135° |
| 2026-04-16 14:05 | 51.10350 | 2.63629 | 23267 ft | 319 kts | 135° |
| 2026-04-16 14:06 | 51.08880 | 2.66330 | 23263 ft | 326 kts | 135° |
| 2026-04-16 14:06 | 51.07390 | 2.69057 | 23244 ft | 326 kts | 135° |
| 2026-04-16 14:06 | 51.05912 | 2.71765 | 23228 ft | 322 kts | 135° |
| 2026-04-16 14:06 | 51.04463 | 2.74468 | 23219 ft | 324 kts | 129° |
| 2026-04-16 14:07 | 51.03572 | 2.77840 | 23267 ft | 344 kts | 99° |
| 2026-04-16 14:07 | 51.03273 | 2.81710 | 23274 ft | 362 kts | 97° |
| 2026-04-16 14:07 | 51.02980 | 2.85776 | 23263 ft | 379 kts | 97° |
| 2026-04-16 14:07 | 51.02661 | 2.90029 | 23254 ft | 396 kts | 98° |
| 2026-04-16 14:08 | 51.02310 | 2.94460 | 23264 ft | 412 kts | 98° |
| 2026-04-16 14:08 | 51.01929 | 2.99051 | 23261 ft | 427 kts | 98° |
| 2026-04-16 14:08 | 51.01528 | 3.03729 | 23259 ft | 439 kts | 98° |
| 2026-04-16 14:08 | 51.01112 | 3.08497 | 23231 ft | 430 kts | 98° |
| 2026-04-16 14:09 | 51.00702 | 3.13129 | 23210 ft | 416 kts | 99° |
| 2026-04-16 14:09 | 51.00303 | 3.17596 | 23217 ft | 401 kts | 99° |
| 2026-04-16 14:09 | 50.99917 | 3.21901 | 23213 ft | 387 kts | 99° |
| 2026-04-16 14:09 | 50.99542 | 3.26063 | 23211 ft | 374 kts | 99° |
| 2026-04-16 14:10 | 50.99178 | 3.30079 | 23215 ft | 361 kts | 99° |
| 2026-04-16 14:10 | 50.98826 | 3.33952 | 23205 ft | 349 kts | 99° |
| 2026-04-16 14:10 | 50.98485 | 3.37689 | 23204 ft | 336 kts | 99° |
| 2026-04-16 14:10 | 50.98156 | 3.41292 | 23202 ft | 324 kts | 99° |
| 2026-04-16 14:11 | 50.97836 | 3.44775 | 23205 ft | 316 kts | 99° |
| 2026-04-16 14:11 | 50.97519 | 3.48209 | 23014 ft | 313 kts | 99° |
| 2026-04-16 14:11 | 50.97203 | 3.51629 | 22595 ft | 313 kts | 99° |
| 2026-04-16 14:11 | 50.96887 | 3.55031 | 22131 ft | 312 kts | 99° |
| 2026-04-16 14:12 | 50.96650 | 3.58467 | 21189 ft | 327 kts | 86° |
| 2026-04-16 14:12 | 50.96960 | 3.62174 | 19961 ft | 352 kts | 78° |
| 2026-04-16 14:12 | 50.97436 | 3.66052 | 19144 ft | 362 kts | 77° |
| 2026-04-16 14:12 | 50.97934 | 3.69960 | 18632 ft | 359 kts | 77° |
| 2026-04-16 14:13 | 50.98414 | 3.73817 | 18170 ft | 354 kts | 78° |
| 2026-04-16 14:13 | 50.98872 | 3.77626 | 17662 ft | 350 kts | 78° |
| 2026-04-16 14:13 | 50.99314 | 3.81410 | 17126 ft | 347 kts | 78° |
| 2026-04-16 14:13 | 50.99744 | 3.85161 | 16621 ft | 344 kts | 78° |
| 2026-04-16 14:14 | 51.00163 | 3.88883 | 16129 ft | 341 kts | 79° |
| 2026-04-16 14:14 | 51.00569 | 3.92521 | 15647 ft | 338 kts | 79° |
| 2026-04-16 14:14 | 51.00976 | 3.96183 | 15162 ft | 335 kts | 79° |
| 2026-04-16 14:14 | 51.01377 | 3.99817 | 14692 ft | 333 kts | 79° |
| 2026-04-16 14:15 | 51.01774 | 4.03418 | 14233 ft | 330 kts | 79° |
| 2026-04-16 14:15 | 51.01908 | 4.04638 | 14078 ft | 329 kts | 79° |
| 2026-04-16 14:15 | 51.02276 | 4.08003 | 13604 ft | 326 kts | 79° |
| 2026-04-16 14:15 | 51.02662 | 4.11535 | 13119 ft | 323 kts | 79° |
| 2026-04-16 14:16 | 51.03044 | 4.15040 | 12629 ft | 320 kts | 79° |
| 2026-04-16 14:16 | 51.03421 | 4.18510 | 12144 ft | 318 kts | 80° |
| 2026-04-16 14:16 | 51.03788 | 4.21902 | 11677 ft | 316 kts | 80° |
| 2026-04-16 14:16 | 51.04157 | 4.25330 | 11205 ft | 313 kts | 80° |
| 2026-04-16 14:17 | 51.04522 | 4.28717 | 10752 ft | 310 kts | 80° |
| 2026-04-16 14:17 | 51.04883 | 4.32075 | 10311 ft | 307 kts | 81° |
| 2026-04-16 14:17 | 51.05241 | 4.35409 | 9862 ft | 304 kts | 81° |
| 2026-04-16 14:17 | 51.05592 | 4.38697 | 9412 ft | 299 kts | 81° |
| 2026-04-16 14:18 | 51.05933 | 4.41898 | 8737 ft | 291 kts | 81° |
| 2026-04-16 14:18 | 51.06267 | 4.45044 | 7941 ft | 287 kts | 81° |
| 2026-04-16 14:18 | 51.06594 | 4.48135 | 7126 ft | 286 kts | 82° |
| 2026-04-16 14:18 | 51.06919 | 4.51204 | 6506 ft | 277 kts | 82° |
| 2026-04-16 14:19 | 51.07237 | 4.54211 | 5808 ft | 272 kts | 82° |
| 2026-04-16 14:19 | 51.07537 | 4.57052 | 5615 ft | 249 kts | 82° |
| 2026-04-16 14:19 | 51.07814 | 4.59677 | 5362 ft | 234 kts | 82° |
| 2026-04-16 14:19 | 51.08076 | 4.62200 | 4841 ft | 230 kts | 82° |
| 2026-04-16 14:20 | 51.08336 | 4.64704 | 4157 ft | 231 kts | 81° |
| 2026-04-16 14:20 | 51.08594 | 4.67199 | 3804 ft | 221 kts | 82° |
| 2026-04-16 14:20 | 51.08624 | 4.69622 | 3235 ft | 222 kts | 109° |
| 2026-04-16 14:20 | 51.07822 | 4.71593 | 2813 ft | 211 kts | 146° |
| 2026-04-16 14:21 | 51.06593 | 4.72635 | 2579 ft | 195 kts | 166° |
| 2026-04-16 14:21 | 51.05346 | 4.73223 | 2393 ft | 183 kts | 169° |
| 2026-04-16 14:21 | 51.04110 | 4.73747 | 2067 ft | 187 kts | 167° |
| 2026-04-16 14:21 | 51.02856 | 4.74292 | 2070 ft | 189 kts | 169° |
| 2026-04-16 14:22 | 51.01588 | 4.74863 | 2030 ft | 188 kts | 169° |
| 2026-04-16 14:22 | 51.00345 | 4.75379 | 2011 ft | 182 kts | 178° |
| 2026-04-16 14:22 | 50.99217 | 4.74837 | 2020 ft | 168 kts | 227° |
| 2026-04-16 14:22 | 50.98451 | 4.73357 | 2028 ft | 179 kts | 230° |
| 2026-04-16 14:23 | 50.97700 | 4.71780 | 2008 ft | 176 kts | 240° |
| 2026-04-16 14:23 | 50.97086 | 4.70145 | 2016 ft | 171 kts | 242° |
| 2026-04-16 14:23 | 50.96548 | 4.68491 | 1998 ft | 169 kts | 245° |
| 2026-04-16 14:23 | 50.96049 | 4.66805 | 2005 ft | 167 kts | 246° |
| 2026-04-16 14:24 | 50.95556 | 4.65112 | 2024 ft | 173 kts | 246° |
| 2026-04-16 14:24 | 50.95053 | 4.63378 | 1934 ft | 170 kts | 246° |
| 2026-04-16 14:24 | 50.94579 | 4.61750 | 1731 ft | 156 kts | 246° |
| 2026-04-16 14:24 | 50.94145 | 4.60258 | 1552 ft | 143 kts | 245° |
| 2026-04-16 14:25 | 50.93738 | 4.58860 | 1387 ft | 137 kts | 246° |
| 2026-04-16 14:25 | 50.93339 | 4.57487 | 1222 ft | 136 kts | 245° |
| 2026-04-16 14:25 | 50.92934 | 4.56091 | 954 ft | 143 kts | 247° |
| 2026-04-16 14:25 | 50.92530 | 4.54655 | 732 ft | 144 kts | 245° |
| 2026-04-16 14:26 | 50.92103 | 4.53229 | 564 ft | 144 kts | 244° |
| 2026-04-16 14:26 | 50.91680 | 4.51770 | 353 ft | 146 kts | 245° |
| 2026-04-16 14:26 | 50.91268 | 4.50336 | 173 ft | 139 kts | 246° |
| 2026-04-16 14:26 | 50.90885 | 4.49008 | 119 ft | 117 kts | 245° |
| 2026-04-16 14:27 | 50.90617 | 4.48079 | 119 ft | 43 kts | 245° |
| 2026-04-16 14:27 | 50.90462 | 4.47697 | 121 ft | 35 kts | 224° |
| 2026-04-16 14:27 | 50.90333 | 4.47574 | 122 ft | 18 kts | 163° |
| 2026-04-16 14:27 | 50.90335 | 4.47728 | 119 ft | 16 kts | 64° |
| 2026-04-16 14:28 | 50.90379 | 4.47879 | 120 ft | 15 kts | 66° |
| 2026-04-16 14:28 | 50.90421 | 4.48027 | 119 ft | 15 kts | 66° |
| 2026-04-16 14:28 | 50.90465 | 4.48181 | 119 ft | 15 kts | 65° |
| 2026-04-16 14:28 | 50.90508 | 4.48329 | 119 ft | 14 kts | 65° |
| 2026-04-16 14:29 | 50.90548 | 4.48469 | 119 ft | 14 kts | 65° |
| 2026-04-16 14:29 | 50.90587 | 4.48601 | 118 ft | 13 kts | 65° |
| 2026-04-16 14:29 | 50.90624 | 4.48728 | 119 ft | 13 kts | 65° |
| 2026-04-16 14:29 | 50.90655 | 4.48836 | 117 ft | 10 kts | 66° |
| 2026-04-16 14:30 | 50.90677 | 4.48915 | 117 ft | 4 kts | 65° |
| 2026-04-16 14:30 | 50.90679 | 4.48921 | 118 ft | 0 kts | 66° |
| 2026-04-16 14:30 | 50.90680 | 4.48926 | 118 ft | 0 kts | 66° |
| 2026-04-16 14:30 | 50.90682 | 4.48931 | 117 ft | 2 kts | 66° |
| 2026-04-16 14:31 | 50.90704 | 4.49008 | 116 ft | 14 kts | 65° |
| 2026-04-16 14:31 | 50.90646 | 4.49138 | 118 ft | 19 kts | 156° |
| 2026-04-16 14:31 | 50.90527 | 4.49221 | 121 ft | 18 kts | 155° |
| 2026-04-16 14:31 | 50.90414 | 4.49303 | 121 ft | 18 kts | 155° |
| 2026-04-16 14:32 | 50.90314 | 4.49281 | 126 ft | 17 kts | 243° |
| 2026-04-16 14:32 | 50.90266 | 4.49114 | 126 ft | 17 kts | 245° |
| 2026-04-16 14:32 | 50.90216 | 4.48943 | 123 ft | 17 kts | 245° |
| 2026-04-16 14:32 | 50.90165 | 4.48764 | 126 ft | 20 kts | 245° |
| 2026-04-16 14:33 | 50.90111 | 4.48607 | 124 ft | 11 kts | 211° |
| 2026-04-16 14:33 | 50.90059 | 4.48627 | 127 ft | 7 kts | 154° |
| 2026-04-16 14:33 | 50.90044 | 4.48637 | 129 ft | 0 kts | 155° |